Pirapetinga, Brazil
Current Conditions -  °F | °C
As of 5:00 AM on Saturday 25 Oct 2014 (Local Time) from SBME Reporting Station
Clear Clear  
Wind Chill: 68°   Ceiling: Unl
Heat Index: 68°   Visibility: 6mi
Dew Point: 64°   Wind: 2mph
Humidity: 88%   Direction: 20°NNE
Pressure: 29.91"   Gusts: NA
Location:  21.66°S, 42.35°W
Report Text: SBME 250700Z 02002KT CAVOK 20/18 Q1013
Loading
Personal Weather Stations






























Interactive Weather Map
Tropical Storm Tracking
New forecast layout! Learn more

10-Day Weather Forecast

Advertisements
Track Severe Weather on mobile